Terminal Aerodrome Forecast
Issued by NWS Flagstaff, AZ

Home | Current Version | Previous Version | Text Only | Print | Product List | Glossary On
Versions: 1 2 3 4 5 6 7 8 9 10 11 12 13 14 15 16 17 18 19
000
FTUS45 KFGZ 222327
TAFFLG
TAF
KFLG 222327Z 2300/2324 21015G25KT P6SM SCT030 SCT110
     FM230600 23010G20KT P6SM SCT030
     FM230900 23010KT P6SM SCT030
     FM231800 24012G24KT P6SM FEW030=

USA.gov is the U.S. government's official web portal to all federal, state and local government web resources and services.